< < Back
Terminal Aerodrome Forecast


Current Version              Previous Versions:   1  2  3  4  5  6  7  8  9  

Terminal Aerodrome Forecast

567
FTUS44 KHUN 242320
TAFHSV
TAF
KHSV 242320Z 2500/2524 16012G22KT P6SM VCTS BKN040CB
     FM250200 15013KT P6SM -SHRA BKN050
     FM250600 15010KT P6SM OVC040
     FM251200 16010KT P6SM OVC030
     FM251900 17010KT P6SM VCSH BKN040=

Latest METAR

181
SAUS80 KWBC 250100
MTRHSV
METAR KHSV 250053Z 13004KT 10SM -RA FEW010 SCT110 OVC130 22/20 A3014 RMK
AO2 RAE30B46 SLP200 P0011 T02220200


USA.gov is the U.S. government's official web portal to all federal, state and local government web resources and services.